sensor_id;sensor_type;location;lat;lon;timestamp;P1;durP1;ratioP1;P2;durP2;ratioP2
67902;SDS011;54708;43.612;1.568;2023-04-30T00:01:38;4.70;;;4.20;;
67902;SDS011;54708;43.612;1.568;2023-04-30T00:04:03;4.57;;;3.78;;
67902;SDS011;54708;43.612;1.568;2023-04-30T00:06:29;5.25;;;4.25;;
67902;SDS011;54708;43.612;1.568;2023-04-30T00:08:55;4.22;;;3.58;;
67902;SDS011;54708;43.612;1.568;2023-04-30T00:11:20;5.60;;;3.35;;
67902;SDS011;54708;43.612;1.568;2023-04-30T00:13:46;5.05;;;3.80;;
67902;SDS011;54708;43.612;1.568;2023-04-30T00:16:11;4.90;;;4.07;;
67902;SDS011;54708;43.612;1.568;2023-04-30T00:18:37;3.50;;;3.20;;
67902;SDS011;54708;43.612;1.568;2023-04-30T00:21:03;6.35;;;3.28;;
67902;SDS011;54708;43.612;1.568;2023-04-30T00:23:28;3.53;;;3.22;;
67902;SDS011;54708;43.612;1.568;2023-04-30T00:25:53;3.25;;;2.95;;
67902;SDS011;54708;43.612;1.568;2023-04-30T00:28:19;3.85;;;2.95;;
67902;SDS011;54708;43.612;1.568;2023-04-30T00:30:44;3.50;;;2.83;;
67902;SDS011;54708;43.612;1.568;2023-04-30T00:33:10;5.05;;;3.20;;
67902;SDS011;54708;43.612;1.568;2023-04-30T00:35:35;4.55;;;3.03;;
67902;SDS011;54708;43.612;1.568;2023-04-30T00:38:00;3.30;;;3.00;;
67902;SDS011;54708;43.612;1.568;2023-04-30T00:40:26;3.10;;;2.80;;
67902;SDS011;54708;43.612;1.568;2023-04-30T00:42:51;3.42;;;3.03;;
67902;SDS011;54708;43.612;1.568;2023-04-30T00:45:19;3.10;;;2.90;;
67902;SDS011;54708;43.612;1.568;2023-04-30T00:47:47;4.25;;;3.13;;
67902;SDS011;54708;43.612;1.568;2023-04-30T00:50:14;3.40;;;3.10;;
67902;SDS011;54708;43.612;1.568;2023-04-30T00:52:43;4.65;;;3.83;;
67902;SDS011;54708;43.612;1.568;2023-04-30T00:55:10;4.50;;;4.10;;
67902;SDS011;54708;43.612;1.568;2023-04-30T00:57:36;3.95;;;3.55;;
67902;SDS011;54708;43.612;1.568;2023-04-30T01:00:02;5.13;;;3.92;;
67902;SDS011;54708;43.612;1.568;2023-04-30T01:02:28;4.32;;;3.92;;
67902;SDS011;54708;43.612;1.568;2023-04-30T01:04:54;4.68;;;4.28;;
67902;SDS011;54708;43.612;1.568;2023-04-30T01:07:20;5.30;;;4.80;;
67902;SDS011;54708;43.612;1.568;2023-04-30T01:09:46;7.82;;;5.78;;
67902;SDS011;54708;43.612;1.568;2023-04-30T01:12:17;7.45;;;6.18;;
67902;SDS011;54708;43.612;1.568;2023-04-30T01:19:58;10.38;;;9.05;;
67902;SDS011;54708;43.612;1.568;2023-04-30T01:30:39;14.95;;;11.00;;
67902;SDS011;54708;43.612;1.568;2023-04-30T01:33:08;16.38;;;11.20;;
67902;SDS011;54708;43.612;1.568;2023-04-30T01:41:34;14.32;;;11.10;;
67902;SDS011;54708;43.612;1.568;2023-04-30T01:46:42;11.07;;;9.18;;
67902;SDS011;54708;43.612;1.568;2023-04-30T01:49:31;10.82;;;9.23;;
67902;SDS011;54708;43.612;1.568;2023-04-30T01:52:14;12.35;;;8.70;;
67902;SDS011;54708;43.612;1.568;2023-04-30T01:57:22;11.02;;;8.82;;
67902;SDS011;54708;43.612;1.568;2023-04-30T01:59:52;11.88;;;8.23;;
67902;SDS011;54708;43.612;1.568;2023-04-30T02:02:18;8.52;;;7.63;;
67902;SDS011;54708;43.612;1.568;2023-04-30T02:04:43;8.43;;;7.55;;
67902;SDS011;54708;43.612;1.568;2023-04-30T02:07:08;12.73;;;7.57;;
67902;SDS011;54708;43.612;1.568;2023-04-30T02:09:34;10.63;;;7.70;;
67902;SDS011;54708;43.612;1.568;2023-04-30T02:11:59;7.97;;;7.18;;
67902;SDS011;54708;43.612;1.568;2023-04-30T02:14:25;7.97;;;7.20;;
67902;SDS011;54708;43.612;1.568;2023-04-30T02:16:50;7.63;;;6.80;;
67902;SDS011;54708;43.612;1.568;2023-04-30T02:19:15;9.82;;;6.57;;
67902;SDS011;54708;43.612;1.568;2023-04-30T02:21:41;8.55;;;7.65;;
67902;SDS011;54708;43.612;1.568;2023-04-30T02:24:06;8.05;;;7.10;;
67902;SDS011;54708;43.612;1.568;2023-04-30T02:26:31;9.07;;;6.40;;
67902;SDS011;54708;43.612;1.568;2023-04-30T02:28:57;7.10;;;5.88;;
67902;SDS011;54708;43.612;1.568;2023-04-30T02:31:22;7.82;;;6.55;;
67902;SDS011;54708;43.612;1.568;2023-04-30T02:33:47;11.05;;;6.65;;
67902;SDS011;54708;43.612;1.568;2023-04-30T02:36:13;7.15;;;6.07;;
67902;SDS011;54708;43.612;1.568;2023-04-30T02:38:38;13.38;;;7.30;;
67902;SDS011;54708;43.612;1.568;2023-04-30T02:41:04;8.00;;;6.18;;
67902;SDS011;54708;43.612;1.568;2023-04-30T02:43:29;10.23;;;8.18;;
67902;SDS011;54708;43.612;1.568;2023-04-30T02:45:54;8.00;;;6.80;;
67902;SDS011;54708;43.612;1.568;2023-04-30T02:48:20;9.43;;;7.43;;
67902;SDS011;54708;43.612;1.568;2023-04-30T02:50:45;7.72;;;6.05;;
67902;SDS011;54708;43.612;1.568;2023-04-30T02:53:11;10.50;;;7.05;;
67902;SDS011;54708;43.612;1.568;2023-04-30T02:55:36;7.65;;;6.80;;
67902;SDS011;54708;43.612;1.568;2023-04-30T02:58:01;7.30;;;6.55;;
67902;SDS011;54708;43.612;1.568;2023-04-30T03:00:27;7.78;;;6.63;;
67902;SDS011;54708;43.612;1.568;2023-04-30T03:02:52;7.25;;;6.50;;
67902;SDS011;54708;43.612;1.568;2023-04-30T03:05:17;8.88;;;6.18;;
67902;SDS011;54708;43.612;1.568;2023-04-30T03:07:43;8.10;;;6.82;;
67902;SDS011;54708;43.612;1.568;2023-04-30T03:10:08;7.15;;;6.10;;
67902;SDS011;54708;43.612;1.568;2023-04-30T03:12:34;11.85;;;7.32;;
67902;SDS011;54708;43.612;1.568;2023-04-30T03:15:00;8.18;;;7.10;;
67902;SDS011;54708;43.612;1.568;2023-04-30T03:17:25;7.65;;;6.85;;
67902;SDS011;54708;43.612;1.568;2023-04-30T03:19:50;9.80;;;7.15;;
67902;SDS011;54708;43.612;1.568;2023-04-30T03:22:16;9.35;;;7.35;;
67902;SDS011;54708;43.612;1.568;2023-04-30T03:24:43;7.95;;;6.63;;
67902;SDS011;54708;43.612;1.568;2023-04-30T03:27:09;6.32;;;5.72;;
67902;SDS011;54708;43.612;1.568;2023-04-30T03:29:34;8.00;;;7.20;;
67902;SDS011;54708;43.612;1.568;2023-04-30T03:32:00;7.25;;;6.50;;
67902;SDS011;54708;43.612;1.568;2023-04-30T03:34:25;7.60;;;6.80;;
67902;SDS011;54708;43.612;1.568;2023-04-30T03:36:50;7.32;;;6.55;;
67902;SDS011;54708;43.612;1.568;2023-04-30T03:39:16;8.10;;;6.47;;
67902;SDS011;54708;43.612;1.568;2023-04-30T03:41:41;7.78;;;5.97;;
67902;SDS011;54708;43.612;1.568;2023-04-30T03:44:07;7.97;;;6.20;;
67902;SDS011;54708;43.612;1.568;2023-04-30T03:46:39;8.98;;;7.03;;
67902;SDS011;54708;43.612;1.568;2023-04-30T03:49:04;7.40;;;6.70;;
67902;SDS011;54708;43.612;1.568;2023-04-30T03:51:30;8.43;;;6.80;;
67902;SDS011;54708;43.612;1.568;2023-04-30T03:53:55;8.38;;;6.95;;
67902;SDS011;54708;43.612;1.568;2023-04-30T03:56:20;9.05;;;7.57;;
67902;SDS011;54708;43.612;1.568;2023-04-30T03:58:46;10.00;;;7.43;;
67902;SDS011;54708;43.612;1.568;2023-04-30T04:01:11;7.22;;;6.50;;
67902;SDS011;54708;43.612;1.568;2023-04-30T04:03:37;8.32;;;7.40;;
67902;SDS011;54708;43.612;1.568;2023-04-30T04:06:02;7.72;;;6.93;;
67902;SDS011;54708;43.612;1.568;2023-04-30T04:08:29;9.82;;;7.35;;
67902;SDS011;54708;43.612;1.568;2023-04-30T04:10:54;7.60;;;6.80;;
67902;SDS011;54708;43.612;1.568;2023-04-30T04:13:20;13.48;;;7.65;;
67902;SDS011;54708;43.612;1.568;2023-04-30T04:15:45;8.70;;;7.22;;
67902;SDS011;54708;43.612;1.568;2023-04-30T04:18:10;9.00;;;7.97;;
67902;SDS011;54708;43.612;1.568;2023-04-30T04:20:36;8.80;;;7.15;;
67902;SDS011;54708;43.612;1.568;2023-04-30T04:23:01;8.30;;;7.20;;
67902;SDS011;54708;43.612;1.568;2023-04-30T04:25:27;8.13;;;6.97;;
67902;SDS011;54708;43.612;1.568;2023-04-30T04:27:53;8.38;;;7.57;;
67902;SDS011;54708;43.612;1.568;2023-04-30T04:30:18;7.97;;;6.78;;
67902;SDS011;54708;43.612;1.568;2023-04-30T04:32:44;9.90;;;7.47;;
67902;SDS011;54708;43.612;1.568;2023-04-30T04:35:14;7.78;;;6.70;;
67902;SDS011;54708;43.612;1.568;2023-04-30T04:37:40;11.00;;;8.02;;
67902;SDS011;54708;43.612;1.568;2023-04-30T04:40:06;9.63;;;7.53;;
67902;SDS011;54708;43.612;1.568;2023-04-30T04:42:32;8.90;;;7.53;;
67902;SDS011;54708;43.612;1.568;2023-04-30T04:44:58;10.85;;;7.93;;
67902;SDS011;54708;43.612;1.568;2023-04-30T04:47:23;11.38;;;7.78;;
67902;SDS011;54708;43.612;1.568;2023-04-30T04:49:48;9.57;;;8.65;;
67902;SDS011;54708;43.612;1.568;2023-04-30T04:52:14;12.98;;;8.88;;
67902;SDS011;54708;43.612;1.568;2023-04-30T04:54:39;12.35;;;8.95;;
67902;SDS011;54708;43.612;1.568;2023-04-30T04:57:05;9.40;;;7.35;;
67902;SDS011;54708;43.612;1.568;2023-04-30T04:59:30;10.75;;;8.68;;
67902;SDS011;54708;43.612;1.568;2023-04-30T05:01:55;9.90;;;8.50;;
67902;SDS011;54708;43.612;1.568;2023-04-30T05:04:21;12.15;;;8.70;;
67902;SDS011;54708;43.612;1.568;2023-04-30T05:06:46;10.38;;;8.48;;
67902;SDS011;54708;43.612;1.568;2023-04-30T05:09:12;11.20;;;9.32;;
67902;SDS011;54708;43.612;1.568;2023-04-30T05:11:37;11.68;;;9.13;;
67902;SDS011;54708;43.612;1.568;2023-04-30T05:14:02;12.38;;;9.88;;
67902;SDS011;54708;43.612;1.568;2023-04-30T05:16:28;13.98;;;10.45;;
67902;SDS011;54708;43.612;1.568;2023-04-30T05:18:54;11.90;;;9.65;;
67902;SDS011;54708;43.612;1.568;2023-04-30T05:21:19;11.80;;;9.48;;
67902;SDS011;54708;43.612;1.568;2023-04-30T05:23:45;12.45;;;9.57;;
67902;SDS011;54708;43.612;1.568;2023-04-30T05:26:11;13.80;;;10.25;;
67902;SDS011;54708;43.612;1.568;2023-04-30T05:28:36;11.90;;;10.32;;
67902;SDS011;54708;43.612;1.568;2023-04-30T05:31:02;12.27;;;9.63;;
67902;SDS011;54708;43.612;1.568;2023-04-30T05:33:27;10.82;;;9.38;;
67902;SDS011;54708;43.612;1.568;2023-04-30T05:35:52;14.13;;;9.98;;
67902;SDS011;54708;43.612;1.568;2023-04-30T05:38:18;12.68;;;9.60;;
67902;SDS011;54708;43.612;1.568;2023-04-30T05:40:44;17.20;;;11.05;;
67902;SDS011;54708;43.612;1.568;2023-04-30T05:43:10;16.02;;;10.85;;
67902;SDS011;54708;43.612;1.568;2023-04-30T05:45:35;15.77;;;10.52;;
67902;SDS011;54708;43.612;1.568;2023-04-30T05:48:00;13.43;;;10.65;;
67902;SDS011;54708;43.612;1.568;2023-04-30T05:50:26;14.45;;;11.05;;
67902;SDS011;54708;43.612;1.568;2023-04-30T05:52:51;16.58;;;12.10;;
67902;SDS011;54708;43.612;1.568;2023-04-30T05:55:17;20.38;;;11.93;;
67902;SDS011;54708;43.612;1.568;2023-04-30T05:57:42;15.90;;;11.77;;
67902;SDS011;54708;43.612;1.568;2023-04-30T06:00:07;14.20;;;10.93;;
67902;SDS011;54708;43.612;1.568;2023-04-30T06:02:33;16.73;;;11.77;;
67902;SDS011;54708;43.612;1.568;2023-04-30T06:04:59;19.67;;;11.55;;
67902;SDS011;54708;43.612;1.568;2023-04-30T06:07:25;17.30;;;11.75;;
67902;SDS011;54708;43.612;1.568;2023-04-30T06:09:51;14.02;;;10.55;;
67902;SDS011;54708;43.612;1.568;2023-04-30T06:12:16;17.42;;;12.55;;
67902;SDS011;54708;43.612;1.568;2023-04-30T06:14:41;18.17;;;12.27;;
67902;SDS011;54708;43.612;1.568;2023-04-30T06:17:09;16.30;;;12.77;;
67902;SDS011;54708;43.612;1.568;2023-04-30T06:19:34;15.23;;;11.65;;
67902;SDS011;54708;43.612;1.568;2023-04-30T06:22:00;17.95;;;12.55;;
67902;SDS011;54708;43.612;1.568;2023-04-30T06:24:25;22.20;;;14.18;;
67902;SDS011;54708;43.612;1.568;2023-04-30T06:26:51;24.80;;;16.38;;
67902;SDS011;54708;43.612;1.568;2023-04-30T06:29:17;18.55;;;12.60;;
67902;SDS011;54708;43.612;1.568;2023-04-30T06:31:42;17.52;;;13.05;;
67902;SDS011;54708;43.612;1.568;2023-04-30T06:34:07;25.23;;;15.65;;
67902;SDS011;54708;43.612;1.568;2023-04-30T06:36:33;17.48;;;13.15;;
67902;SDS011;54708;43.612;1.568;2023-04-30T06:38:58;23.10;;;13.88;;
67902;SDS011;54708;43.612;1.568;2023-04-30T06:41:23;23.20;;;13.77;;
67902;SDS011;54708;43.612;1.568;2023-04-30T06:43:49;19.92;;;14.30;;
67902;SDS011;54708;43.612;1.568;2023-04-30T06:46:15;20.67;;;13.75;;
67902;SDS011;54708;43.612;1.568;2023-04-30T06:48:40;20.80;;;14.25;;
67902;SDS011;54708;43.612;1.568;2023-04-30T06:51:05;20.35;;;14.32;;
67902;SDS011;54708;43.612;1.568;2023-04-30T06:53:31;20.25;;;13.32;;
67902;SDS011;54708;43.612;1.568;2023-04-30T06:55:56;21.88;;;14.75;;
67902;SDS011;54708;43.612;1.568;2023-04-30T06:58:22;31.60;;;14.88;;
67902;SDS011;54708;43.612;1.568;2023-04-30T07:00:48;23.83;;;14.40;;
67902;SDS011;54708;43.612;1.568;2023-04-30T07:03:13;22.98;;;14.18;;
67902;SDS011;54708;43.612;1.568;2023-04-30T07:05:38;21.30;;;15.05;;
67902;SDS011;54708;43.612;1.568;2023-04-30T07:08:05;17.38;;;13.88;;
67902;SDS011;54708;43.612;1.568;2023-04-30T07:10:30;24.00;;;14.48;;
67902;SDS011;54708;43.612;1.568;2023-04-30T07:12:56;19.67;;;13.73;;
67902;SDS011;54708;43.612;1.568;2023-04-30T07:15:21;21.33;;;13.52;;
67902;SDS011;54708;43.612;1.568;2023-04-30T07:17:47;16.98;;;13.68;;
67902;SDS011;54708;43.612;1.568;2023-04-30T07:20:12;18.95;;;13.38;;
67902;SDS011;54708;43.612;1.568;2023-04-30T07:22:41;21.65;;;14.10;;
67902;SDS011;54708;43.612;1.568;2023-04-30T07:25:11;19.38;;;12.55;;
67902;SDS011;54708;43.612;1.568;2023-04-30T07:27:37;20.25;;;13.63;;
67902;SDS011;54708;43.612;1.568;2023-04-30T07:30:03;19.65;;;12.70;;
67902;SDS011;54708;43.612;1.568;2023-04-30T07:32:29;19.00;;;12.50;;
67902;SDS011;54708;43.612;1.568;2023-04-30T07:34:54;19.08;;;12.82;;
67902;SDS011;54708;43.612;1.568;2023-04-30T07:37:20;19.17;;;12.43;;
67902;SDS011;54708;43.612;1.568;2023-04-30T07:39:45;16.10;;;11.50;;
67902;SDS011;54708;43.612;1.568;2023-04-30T07:42:11;15.98;;;10.95;;
67902;SDS011;54708;43.612;1.568;2023-04-30T07:44:36;17.00;;;13.32;;
67902;SDS011;54708;43.612;1.568;2023-04-30T07:47:02;16.90;;;12.60;;
67902;SDS011;54708;43.612;1.568;2023-04-30T07:49:27;19.10;;;13.60;;
67902;SDS011;54708;43.612;1.568;2023-04-30T07:51:53;16.92;;;11.55;;
67902;SDS011;54708;43.612;1.568;2023-04-30T07:54:18;16.70;;;11.20;;
67902;SDS011;54708;43.612;1.568;2023-04-30T07:56:44;17.50;;;10.57;;
67902;SDS011;54708;43.612;1.568;2023-04-30T07:59:09;15.60;;;10.15;;
67902;SDS011;54708;43.612;1.568;2023-04-30T08:01:34;17.60;;;10.75;;
67902;SDS011;54708;43.612;1.568;2023-04-30T08:04:00;12.15;;;9.25;;
67902;SDS011;54708;43.612;1.568;2023-04-30T08:06:25;12.75;;;9.98;;
67902;SDS011;54708;43.612;1.568;2023-04-30T08:08:53;13.23;;;9.75;;
67902;SDS011;54708;43.612;1.568;2023-04-30T08:11:19;17.08;;;10.63;;
67902;SDS011;54708;43.612;1.568;2023-04-30T08:13:45;12.82;;;8.75;;
67902;SDS011;54708;43.612;1.568;2023-04-30T08:16:10;14.68;;;9.57;;
67902;SDS011;54708;43.612;1.568;2023-04-30T08:18:36;14.02;;;9.93;;
67902;SDS011;54708;43.612;1.568;2023-04-30T08:21:03;14.80;;;9.70;;
67902;SDS011;54708;43.612;1.568;2023-04-30T08:23:29;13.82;;;9.25;;
67902;SDS011;54708;43.612;1.568;2023-04-30T08:25:54;13.13;;;9.43;;
67902;SDS011;54708;43.612;1.568;2023-04-30T08:28:20;12.95;;;9.45;;
67902;SDS011;54708;43.612;1.568;2023-04-30T08:30:45;15.85;;;9.70;;
67902;SDS011;54708;43.612;1.568;2023-04-30T08:33:10;13.77;;;9.77;;
67902;SDS011;54708;43.612;1.568;2023-04-30T08:35:36;11.55;;;9.15;;
67902;SDS011;54708;43.612;1.568;2023-04-30T08:38:01;13.57;;;9.15;;
67902;SDS011;54708;43.612;1.568;2023-04-30T08:40:27;16.15;;;8.77;;
67902;SDS011;54708;43.612;1.568;2023-04-30T08:42:55;16.60;;;9.95;;
67902;SDS011;54708;43.612;1.568;2023-04-30T08:45:26;13.73;;;9.57;;
67902;SDS011;54708;43.612;1.568;2023-04-30T08:47:52;18.40;;;9.13;;
67902;SDS011;54708;43.612;1.568;2023-04-30T08:50:18;15.40;;;9.10;;
67902;SDS011;54708;43.612;1.568;2023-04-30T08:52:43;11.35;;;9.00;;
67902;SDS011;54708;43.612;1.568;2023-04-30T08:55:08;15.98;;;9.93;;
67902;SDS011;54708;43.612;1.568;2023-04-30T08:57:35;13.35;;;9.48;;
67902;SDS011;54708;43.612;1.568;2023-04-30T09:00:01;13.70;;;9.57;;
67902;SDS011;54708;43.612;1.568;2023-04-30T09:02:27;17.55;;;11.27;;
67902;SDS011;54708;43.612;1.568;2023-04-30T09:04:55;15.60;;;10.27;;
67902;SDS011;54708;43.612;1.568;2023-04-30T09:07:20;14.00;;;10.48;;
67902;SDS011;54708;43.612;1.568;2023-04-30T09:09:51;13.63;;;11.02;;
67902;SDS011;54708;43.612;1.568;2023-04-30T09:12:17;20.52;;;11.95;;
67902;SDS011;54708;43.612;1.568;2023-04-30T09:15:04;20.00;;;11.50;;
67902;SDS011;54708;43.612;1.568;2023-04-30T09:17:31;21.40;;;12.90;;
67902;SDS011;54708;43.612;1.568;2023-04-30T09:20:07;19.60;;;11.88;;
67902;SDS011;54708;43.612;1.568;2023-04-30T09:22:37;21.40;;;12.50;;
67902;SDS011;54708;43.612;1.568;2023-04-30T09:25:03;15.90;;;12.52;;
67902;SDS011;54708;43.612;1.568;2023-04-30T09:27:29;21.55;;;10.73;;
67902;SDS011;54708;43.612;1.568;2023-04-30T09:29:55;20.52;;;12.68;;
67902;SDS011;54708;43.612;1.568;2023-04-30T09:32:20;17.00;;;12.20;;
67902;SDS011;54708;43.612;1.568;2023-04-30T09:34:46;20.48;;;11.80;;
67902;SDS011;54708;43.612;1.568;2023-04-30T09:37:11;19.85;;;11.90;;
67902;SDS011;54708;43.612;1.568;2023-04-30T09:39:58;20.98;;;12.38;;
67902;SDS011;54708;43.612;1.568;2023-04-30T09:42:23;20.23;;;12.43;;
67902;SDS011;54708;43.612;1.568;2023-04-30T09:44:48;17.38;;;12.13;;
67902;SDS011;54708;43.612;1.568;2023-04-30T09:47:14;16.95;;;11.50;;
67902;SDS011;54708;43.612;1.568;2023-04-30T09:49:42;19.45;;;12.07;;
67902;SDS011;54708;43.612;1.568;2023-04-30T09:52:08;24.85;;;13.35;;
67902;SDS011;54708;43.612;1.568;2023-04-30T09:54:33;23.52;;;13.80;;
67902;SDS011;54708;43.612;1.568;2023-04-30T09:57:00;20.55;;;13.40;;
67902;SDS011;54708;43.612;1.568;2023-04-30T09:59:30;21.88;;;13.63;;
67902;SDS011;54708;43.612;1.568;2023-04-30T10:01:58;23.75;;;14.13;;
67902;SDS011;54708;43.612;1.568;2023-04-30T10:04:37;19.42;;;13.10;;
67902;SDS011;54708;43.612;1.568;2023-04-30T10:07:18;20.05;;;13.52;;
67902;SDS011;54708;43.612;1.568;2023-04-30T10:10:06;22.25;;;12.40;;
67902;SDS011;54708;43.612;1.568;2023-04-30T10:12:38;22.13;;;11.13;;
67902;SDS011;54708;43.612;1.568;2023-04-30T10:15:14;24.40;;;13.30;;
67902;SDS011;54708;43.612;1.568;2023-04-30T10:17:46;19.08;;;11.48;;
67902;SDS011;54708;43.612;1.568;2023-04-30T10:20:14;16.65;;;12.35;;
67902;SDS011;54708;43.612;1.568;2023-04-30T10:22:42;18.98;;;11.75;;
67902;SDS011;54708;43.612;1.568;2023-04-30T10:25:10;17.60;;;10.75;;
67902;SDS011;54708;43.612;1.568;2023-04-30T10:27:37;20.02;;;11.00;;
67902;SDS011;54708;43.612;1.568;2023-04-30T10:30:03;16.58;;;11.05;;
67902;SDS011;54708;43.612;1.568;2023-04-30T10:32:32;14.65;;;10.20;;
67902;SDS011;54708;43.612;1.568;2023-04-30T10:37:33;22.08;;;10.95;;
67902;SDS011;54708;43.612;1.568;2023-04-30T10:40:02;14.15;;;10.15;;
67902;SDS011;54708;43.612;1.568;2023-04-30T10:42:29;18.35;;;12.30;;
67902;SDS011;54708;43.612;1.568;2023-04-30T10:44:54;19.38;;;12.90;;
67902;SDS011;54708;43.612;1.568;2023-04-30T10:47:26;26.42;;;14.38;;
67902;SDS011;54708;43.612;1.568;2023-04-30T10:50:00;18.42;;;11.32;;
67902;SDS011;54708;43.612;1.568;2023-04-30T10:52:29;21.05;;;12.80;;
67902;SDS011;54708;43.612;1.568;2023-04-30T10:54:54;15.60;;;11.52;;
67902;SDS011;54708;43.612;1.568;2023-04-30T10:57:20;19.65;;;12.85;;
67902;SDS011;54708;43.612;1.568;2023-04-30T11:02:15;21.73;;;13.77;;
67902;SDS011;54708;43.612;1.568;2023-04-30T11:07:30;19.30;;;13.20;;
67902;SDS011;54708;43.612;1.568;2023-04-30T11:09:56;21.63;;;13.40;;
67902;SDS011;54708;43.612;1.568;2023-04-30T11:12:21;19.90;;;13.68;;
67902;SDS011;54708;43.612;1.568;2023-04-30T11:14:52;21.15;;;14.32;;
67902;SDS011;54708;43.612;1.568;2023-04-30T11:17:24;20.80;;;13.32;;
67902;SDS011;54708;43.612;1.568;2023-04-30T11:19:51;22.27;;;15.73;;
67902;SDS011;54708;43.612;1.568;2023-04-30T11:22:18;20.30;;;15.13;;
67902;SDS011;54708;43.612;1.568;2023-04-30T11:24:53;19.85;;;13.35;;
67902;SDS011;54708;43.612;1.568;2023-04-30T11:29:45;18.98;;;12.88;;
67902;SDS011;54708;43.612;1.568;2023-04-30T11:32:11;18.85;;;12.85;;
67902;SDS011;54708;43.612;1.568;2023-04-30T11:34:37;20.77;;;13.60;;
67902;SDS011;54708;43.612;1.568;2023-04-30T11:37:02;19.85;;;12.93;;
67902;SDS011;54708;43.612;1.568;2023-04-30T11:39:28;21.35;;;14.23;;
67902;SDS011;54708;43.612;1.568;2023-04-30T11:41:53;21.10;;;13.35;;
67902;SDS011;54708;43.612;1.568;2023-04-30T11:44:26;20.17;;;13.57;;
67902;SDS011;54708;43.612;1.568;2023-04-30T11:46:51;18.30;;;13.90;;
67902;SDS011;54708;43.612;1.568;2023-04-30T11:49:19;20.33;;;13.20;;
67902;SDS011;54708;43.612;1.568;2023-04-30T11:51:47;20.20;;;14.05;;
67902;SDS011;54708;43.612;1.568;2023-04-30T11:54:13;16.90;;;12.00;;
67902;SDS011;54708;43.612;1.568;2023-04-30T11:56:44;17.48;;;12.25;;
67902;SDS011;54708;43.612;1.568;2023-04-30T11:59:12;20.90;;;11.82;;
67902;SDS011;54708;43.612;1.568;2023-04-30T12:01:37;17.13;;;11.65;;
67902;SDS011;54708;43.612;1.568;2023-04-30T12:04:04;16.05;;;11.73;;
67902;SDS011;54708;43.612;1.568;2023-04-30T12:06:30;17.73;;;11.18;;
67902;SDS011;54708;43.612;1.568;2023-04-30T12:08:56;17.63;;;11.27;;
67902;SDS011;54708;43.612;1.568;2023-04-30T12:11:26;14.40;;;10.75;;
67902;SDS011;54708;43.612;1.568;2023-04-30T12:13:56;19.30;;;10.63;;
67902;SDS011;54708;43.612;1.568;2023-04-30T12:16:37;16.20;;;10.63;;
67902;SDS011;54708;43.612;1.568;2023-04-30T12:19:04;16.35;;;11.18;;
67902;SDS011;54708;43.612;1.568;2023-04-30T12:21:29;12.02;;;10.55;;
67902;SDS011;54708;43.612;1.568;2023-04-30T12:23:55;16.40;;;10.13;;
67902;SDS011;54708;43.612;1.568;2023-04-30T12:26:21;16.63;;;10.48;;
67902;SDS011;54708;43.612;1.568;2023-04-30T12:28:47;17.88;;;10.98;;
67902;SDS011;54708;43.612;1.568;2023-04-30T12:31:13;13.98;;;9.52;;
67902;SDS011;54708;43.612;1.568;2023-04-30T12:33:41;16.38;;;9.10;;
67902;SDS011;54708;43.612;1.568;2023-04-30T12:36:10;13.57;;;9.32;;
67902;SDS011;54708;43.612;1.568;2023-04-30T12:38:36;15.65;;;9.30;;
67902;SDS011;54708;43.612;1.568;2023-04-30T12:41:03;11.73;;;9.90;;
67902;SDS011;54708;43.612;1.568;2023-04-30T12:43:28;15.98;;;8.60;;
67902;SDS011;54708;43.612;1.568;2023-04-30T12:45:54;8.98;;;7.65;;
67902;SDS011;54708;43.612;1.568;2023-04-30T12:48:23;12.25;;;7.40;;
67902;SDS011;54708;43.612;1.568;2023-04-30T12:53:18;11.82;;;7.85;;
67902;SDS011;54708;43.612;1.568;2023-04-30T12:56:02;11.73;;;6.68;;
67902;SDS011;54708;43.612;1.568;2023-04-30T12:58:40;9.52;;;7.13;;
67902;SDS011;54708;43.612;1.568;2023-04-30T13:01:15;11.75;;;6.95;;
67902;SDS011;54708;43.612;1.568;2023-04-30T13:03:45;6.40;;;5.80;;
67902;SDS011;54708;43.612;1.568;2023-04-30T13:06:10;29.52;;;10.07;;
67902;SDS011;54708;43.612;1.568;2023-04-30T13:08:36;9.90;;;7.35;;
67902;SDS011;54708;43.612;1.568;2023-04-30T13:11:01;11.07;;;6.20;;
67902;SDS011;54708;43.612;1.568;2023-04-30T13:13:27;10.07;;;5.65;;
67902;SDS011;54708;43.612;1.568;2023-04-30T13:15:53;12.30;;;5.63;;
67902;SDS011;54708;43.612;1.568;2023-04-30T13:18:18;9.30;;;5.93;;
67902;SDS011;54708;43.612;1.568;2023-04-30T13:20:44;10.65;;;7.30;;
67902;SDS011;54708;43.612;1.568;2023-04-30T13:23:09;7.60;;;5.65;;
67902;SDS011;54708;43.612;1.568;2023-04-30T13:25:36;7.97;;;5.20;;
67902;SDS011;54708;43.612;1.568;2023-04-30T13:28:02;6.85;;;5.32;;
67902;SDS011;54708;43.612;1.568;2023-04-30T13:30:27;5.45;;;4.95;;
67902;SDS011;54708;43.612;1.568;2023-04-30T13:32:53;8.38;;;5.18;;
67902;SDS011;54708;43.612;1.568;2023-04-30T13:35:19;7.78;;;4.90;;
67902;SDS011;54708;43.612;1.568;2023-04-30T13:37:44;7.65;;;4.85;;
67902;SDS011;54708;43.612;1.568;2023-04-30T13:40:12;13.10;;;5.75;;
67902;SDS011;54708;43.612;1.568;2023-04-30T13:42:40;7.22;;;4.95;;
67902;SDS011;54708;43.612;1.568;2023-04-30T13:45:06;5.70;;;4.70;;
67902;SDS011;54708;43.612;1.568;2023-04-30T13:47:32;5.40;;;4.28;;
67902;SDS011;54708;43.612;1.568;2023-04-30T13:49:59;6.10;;;4.20;;
67902;SDS011;54708;43.612;1.568;2023-04-30T13:52:24;4.75;;;3.90;;
67902;SDS011;54708;43.612;1.568;2023-04-30T13:54:50;5.28;;;4.15;;
67902;SDS011;54708;43.612;1.568;2023-04-30T13:57:16;5.43;;;4.22;;
67902;SDS011;54708;43.612;1.568;2023-04-30T13:59:42;4.75;;;4.25;;
67902;SDS011;54708;43.612;1.568;2023-04-30T14:02:07;4.97;;;3.67;;
67902;SDS011;54708;43.612;1.568;2023-04-30T14:04:33;5.43;;;4.63;;
67902;SDS011;54708;43.612;1.568;2023-04-30T14:06:59;13.05;;;3.80;;
67902;SDS011;54708;43.612;1.568;2023-04-30T14:09:25;5.18;;;4.18;;
67902;SDS011;54708;43.612;1.568;2023-04-30T14:11:51;7.00;;;4.20;;
67902;SDS011;54708;43.612;1.568;2023-04-30T14:14:16;7.93;;;3.60;;
67902;SDS011;54708;43.612;1.568;2023-04-30T14:16:42;6.63;;;4.30;;
67902;SDS011;54708;43.612;1.568;2023-04-30T14:19:08;7.88;;;3.83;;
67902;SDS011;54708;43.612;1.568;2023-04-30T14:21:33;5.55;;;3.55;;
67902;SDS011;54708;43.612;1.568;2023-04-30T14:23:59;6.20;;;3.67;;
67902;SDS011;54708;43.612;1.568;2023-04-30T14:26:25;4.43;;;3.30;;
67902;SDS011;54708;43.612;1.568;2023-04-30T14:28:50;7.55;;;4.25;;
67902;SDS011;54708;43.612;1.568;2023-04-30T14:31:16;5.13;;;3.53;;
67902;SDS011;54708;43.612;1.568;2023-04-30T14:33:41;7.90;;;3.58;;
67902;SDS011;54708;43.612;1.568;2023-04-30T14:36:07;7.80;;;3.72;;
67902;SDS011;54708;43.612;1.568;2023-04-30T14:38:33;4.30;;;3.83;;
67902;SDS011;54708;43.612;1.568;2023-04-30T14:40:58;4.95;;;3.63;;
67902;SDS011;54708;43.612;1.568;2023-04-30T14:43:23;3.95;;;3.50;;
67902;SDS011;54708;43.612;1.568;2023-04-30T14:45:49;3.95;;;3.55;;
67902;SDS011;54708;43.612;1.568;2023-04-30T14:48:15;4.65;;;3.83;;
67902;SDS011;54708;43.612;1.568;2023-04-30T14:50:42;5.93;;;3.58;;
67902;SDS011;54708;43.612;1.568;2023-04-30T14:53:08;7.15;;;3.53;;
67902;SDS011;54708;43.612;1.568;2023-04-30T14:55:35;7.15;;;3.63;;
67902;SDS011;54708;43.612;1.568;2023-04-30T14:58:01;5.13;;;3.33;;
67902;SDS011;54708;43.612;1.568;2023-04-30T15:00:26;6.68;;;3.88;;
67902;SDS011;54708;43.612;1.568;2023-04-30T15:02:53;5.07;;;4.57;;
67902;SDS011;54708;43.612;1.568;2023-04-30T15:05:18;4.13;;;2.92;;
67902;SDS011;54708;43.612;1.568;2023-04-30T15:07:43;3.83;;;3.53;;